Randolph, MA

2:33 PM EST on January 26, 2015 (GMT -0500)
APRSWXNET Randolph MA US | Change Station
CLOSE
Current Station
Personal Weather Station
Location: Randolph, MA
Elevation: 225 ft
Nearby Weather Stations
Active Advisory: Blizzard Warning

Elev 225 ft 42.20 °N, 71.06 °W | Updated 42 minutes ago

Overcast
Overcast
26 °F
Feels Like 26 °F
N
2
Wind Variable Wind from East
Gusts 15.0 mph

Today
High -- | Low -- °F
--% Chance of Precip.
Yesterday
High -- | Low -- °F
Precip. -- in
7:03 AM 4:50 PM
Waxing Crescent, 46% visible
Pressure 30.03 in
Visibility 4.0 miles
Clouds Few 1800 ft
Mostly Cloudy 2600 ft
Overcast 3300 ft
Windchill 26 °F
Dew Point 21 °F
Humidity 82%
Rainfall 0.07 in
Snow Depth Not available.
UV 1 out of 12
Pollen .10 out of 12
Air Quality Not available.
Flu Activity Not available.
SPECI KOWD 261909Z 06009KT 4SM -SN FEW018 BKN026 OVC033 M03/M06 A3003 RMK AO2 P0000 T10281061

More Conditions Fewer Conditions

Pressure 30.03 in
Visibility 4.0 miles
Clouds Few 1800 ft
Mostly Cloudy 2600 ft
Overcast 3300 ft
Windchill 26 °F
Dew Point 21 °F
Humidity 82%
Rainfall 0.07 in
Snow Depth Not available.
UV 1 out of 12
Pollen .10 out of 12
Air Quality Not available.
Flu Activity Not available.
SPECI KOWD 261909Z 06009KT 4SM -SN FEW018 BKN026 OVC033 M03/M06 A3003 RMK AO2 P0000 T10281061

More Conditions Fewer Conditions

10-Day Weather Forecast

Almanac

Astronomy

Jan. 26, 2015 Rise Set
Actual Time
Civil Twilight
Nautical Twilight
Astronomical Twilight
Moon
Length of Visible Light
Length of Day
Tomorrow will be .
, % of the Moon is Illuminated

Today's Extremes

State Highs State Lows

Community

WunderPhotos

Upload Photos

1,790,338 photos uploaded!

WunderBlogs® & News

Nearby

Air Quality

  Air Quality AQ Index Pollutant
Not available.

Snow Depth

Station Depth Elevation

Earthquake Activity

City Distance Mag. Time & Date
Minimum magnitude displayed is 2.5.

Coastal Water Temperatures

Place Temperature

Nearby Weather Stations